Lawrence, Massachusetts
Current Conditions -  °F | °C
As of 3:54 PM on Thursday 23 Oct 2014 (Local Time) from KLWM Reporting Station
Overcast Overcast  
Wind Chill: 52°   Ceiling: 1000
Heat Index: 52°   Visibility: 10mi
Dew Point: 50°   Wind: 20mph
Humidity: 93%   Direction: 20°NNE
Pressure: 29.65"   Gusts: 31mph
Location:  42.71°N, 71.16°W
Report Text: KLWM 231954Z 02017G27KT 10SM OVC010 11/10 A2965 RMK AO2 PK WND 03029/1900 RAE50 CIG 008V013 SLP042 P0000 T01110100
Loading
Personal Weather Stations






























Interactive Weather Map
Tropical Storm Tracking
New forecast layout! Learn more

10-Day Weather Forecast

Advertisements
Track Severe Weather on mobile